createdAt,value
2016-09-25T00:00:33.178Z,1005.19
2016-09-25T00:01:43.479Z,1005.22
2016-09-25T00:02:53.782Z,1005.19
2016-09-25T00:04:03.774Z,1005.21
2016-09-25T00:05:13.759Z,1005.18
2016-09-25T00:06:24.046Z,1005.18
2016-09-25T00:07:34.339Z,1005.19
2016-09-25T00:08:44.325Z,1005.16
2016-09-25T00:09:54.300Z,1005.15
2016-09-25T00:11:04.588Z,1005.15
2016-09-25T00:12:14.869Z,1005.16
2016-09-25T00:13:25.150Z,1005.15
2016-09-25T00:14:35.423Z,1005.17
2016-09-25T00:15:45.743Z,1005.17
2016-09-25T00:16:56.034Z,1005.15
2016-09-25T00:18:06.328Z,1005.17
2016-09-25T00:19:16.671Z,1005.13
2016-09-25T00:20:26.951Z,1005.11
2016-09-25T00:21:36.931Z,1005.1
2016-09-25T00:22:46.916Z,1005.13
2016-09-25T00:23:57.193Z,1005.13
2016-09-25T00:25:07.478Z,1005.1
2016-09-25T00:26:17.771Z,1005.07
2016-09-25T00:27:28.136Z,1005.12
2016-09-25T00:28:38.135Z,1005.11
2016-09-25T00:29:48.137Z,1005.14
2016-09-25T00:30:58.134Z,1005.11
2016-09-25T00:32:08.108Z,1005.13
2016-09-25T00:33:18.380Z,1005.14
2016-09-25T00:34:28.358Z,1005.1
2016-09-25T00:35:38.644Z,1005.12
2016-09-25T00:36:48.956Z,1005.18
2016-09-25T00:37:58.928Z,1005.13
2016-09-25T00:39:08.927Z,1005.12
2016-09-25T00:40:19.215Z,1005.14
2016-09-25T00:41:29.507Z,1005.17
2016-09-25T00:42:39.467Z,1005.15
2016-09-25T00:43:49.444Z,1005.15
2016-09-25T00:44:59.727Z,1005.17
2016-09-25T00:46:10.034Z,1005.18
2016-09-25T00:47:20.077Z,1005.15
2016-09-25T00:48:30.058Z,1005.18
2016-09-25T00:49:39.720Z,1005.11
2016-09-25T00:50:50.013Z,1005.16
2016-09-25T00:51:59.996Z,1005.14
2016-09-25T00:53:10.291Z,1005.13
2016-09-25T00:54:20.592Z,1005.12
2016-09-25T00:55:30.306Z,1005.16
2016-09-25T00:56:40.290Z,1005.12
2016-09-25T00:57:50.580Z,1005.11
2016-09-25T00:59:00.572Z,1005.1
2016-09-25T01:00:10.894Z,1005.07
2016-09-25T01:01:21.201Z,1005.03
2016-09-25T01:02:31.494Z,1005.05
2016-09-25T01:03:41.504Z,1005.03
2016-09-25T01:04:51.785Z,1005.01
2016-09-25T01:06:02.087Z,1005.02
2016-09-25T01:07:12.378Z,1004.97
2016-09-25T01:08:22.667Z,1005.01
2016-09-25T01:09:32.953Z,1004.98
2016-09-25T01:10:42.954Z,1005.01
2016-09-25T01:11:52.935Z,1005.03
2016-09-25T01:13:02.907Z,1005.09
2016-09-25T01:14:12.579Z,1005.08
2016-09-25T01:15:22.571Z,1005.11
2016-09-25T01:16:32.233Z,1005.1
2016-09-25T01:17:42.515Z,1005.1
2016-09-25T01:18:52.785Z,1005.14
2016-09-25T01:20:03.068Z,1005.14
2016-09-25T01:21:13.369Z,1005.15
2016-09-25T01:22:23.664Z,1005.17
2016-09-25T01:23:33.652Z,1005.17
2016-09-25T01:24:43.923Z,1005.13
2016-09-25T01:25:53.904Z,1005.13
2016-09-25T01:27:04.193Z,1005.12
2016-09-25T01:28:14.495Z,1005.13
2016-09-25T01:29:24.486Z,1005.11
2016-09-25T01:30:34.758Z,1005.16
2016-09-25T01:31:44.743Z,1005.09
2016-09-25T01:32:54.431Z,1005.11
2016-09-25T01:34:04.113Z,1005.11
2016-09-25T01:35:14.401Z,1005.06
2016-09-25T01:36:24.685Z,1005.1
2016-09-25T01:37:35.198Z,1005.04
2016-09-25T01:38:45.476Z,1005.06
2016-09-25T01:39:55.452Z,1005.03
2016-09-25T01:41:05.746Z,1005.06
2016-09-25T01:42:15.423Z,1005.06
2016-09-25T01:43:25.084Z,1005.06
2016-09-25T01:44:35.367Z,1005.08
2016-09-25T01:45:45.337Z,1005.08
2016-09-25T01:46:55.316Z,1005.11
2016-09-25T01:48:05.618Z,1005.1
2016-09-25T01:49:15.898Z,1005.06
2016-09-25T01:50:26.201Z,1005.09
2016-09-25T01:51:36.502Z,1005.06
2016-09-25T01:52:46.788Z,1005.03
2016-09-25T01:53:57.075Z,1004.99
2016-09-25T01:55:07.362Z,1005.02
2016-09-25T01:56:17.653Z,1004.99
2016-09-25T01:57:27.644Z,1005
2016-09-25T01:58:37.823Z,1004.99
2016-09-25T01:59:48.108Z,1004.95
2016-09-25T02:00:58.088Z,1004.93
2016-09-25T02:02:08.376Z,1004.96
2016-09-25T02:03:18.348Z,1004.96
2016-09-25T02:04:28.324Z,1004.98
2016-09-25T02:05:38.306Z,1004.98
2016-09-25T02:06:48.598Z,1004.97
2016-09-25T02:07:58.580Z,1004.98
2016-09-25T02:09:08.867Z,1004.98
2016-09-25T02:10:19.158Z,1005.01
2016-09-25T02:11:29.450Z,1004.98
2016-09-25T02:12:39.418Z,1004.99
2016-09-25T02:13:49.708Z,1004.94
2016-09-25T02:15:00.018Z,1004.93
2016-09-25T02:16:10.313Z,1004.92
2016-09-25T02:17:20.604Z,1004.93
2016-09-25T02:18:30.894Z,1004.95
2016-09-25T02:19:40.869Z,1004.94
2016-09-25T02:20:51.154Z,1004.93
2016-09-25T02:22:01.126Z,1004.97
2016-09-25T02:23:11.114Z,1004.96
2016-09-25T02:24:21.404Z,1004.98
2016-09-25T02:25:31.376Z,1004.98
2016-09-25T02:26:41.661Z,1004.94
2016-09-25T02:27:51.937Z,1004.93
2016-09-25T02:29:02.221Z,1004.93
2016-09-25T02:30:12.201Z,1004.89
2016-09-25T02:31:21.874Z,1004.95
2016-09-25T02:32:32.150Z,1004.92
2016-09-25T02:33:42.427Z,1004.94
2016-09-25T02:34:52.390Z,1004.94
2016-09-25T02:36:02.364Z,1004.95
2016-09-25T02:37:12.352Z,1004.97
2016-09-25T02:38:22.658Z,1004.97
2016-09-25T02:39:32.935Z,1004.98
2016-09-25T02:40:43.211Z,1004.98
2016-09-25T02:41:53.183Z,1004.97
2016-09-25T02:43:03.154Z,1005
2016-09-25T02:44:13.133Z,1005.02
2016-09-25T02:45:23.110Z,1004.97
2016-09-25T02:46:33.380Z,1005.05
2016-09-25T02:47:43.660Z,1004.98
2016-09-25T02:48:53.947Z,1004.99
2016-09-25T02:50:04.237Z,1004.96
2016-09-25T02:51:14.233Z,1004.95
2016-09-25T02:52:24.510Z,1004.97
2016-09-25T02:53:34.801Z,1004.99
2016-09-25T02:54:44.776Z,1005
2016-09-25T02:55:54.765Z,1005.02
2016-09-25T02:57:04.748Z,1005.06
2016-09-25T02:58:15.039Z,1005
2016-09-25T02:59:25.329Z,1005.07
2016-09-25T03:00:35.605Z,1005
2016-09-25T03:32:42.493Z,1004.84
2016-09-25T03:33:52.764Z,1004.79
2016-09-25T03:35:03.081Z,1004.8
2016-09-25T03:36:13.368Z,1004.8
2016-09-25T03:37:23.665Z,1004.81
2016-09-25T03:38:33.940Z,1004.81
2016-09-25T03:39:44.242Z,1004.8
2016-09-25T03:40:54.521Z,1004.86
2016-09-25T03:42:04.830Z,1004.86
2016-09-25T03:43:14.796Z,1004.88
2016-09-25T03:44:25.074Z,1004.87
2016-09-25T03:45:35.366Z,1004.85
2016-09-25T03:46:45.662Z,1004.83
2016-09-25T03:47:55.936Z,1004.82
2016-09-25T03:49:06.227Z,1004.81
2016-09-25T03:50:16.513Z,1004.8
2016-09-25T03:51:26.165Z,1004.78
2016-09-25T03:52:36.145Z,1004.82
2016-09-25T03:53:46.433Z,1004.78
2016-09-25T03:54:56.718Z,1004.79
2016-09-25T03:56:07.019Z,1004.83
2016-09-25T03:57:16.996Z,1004.81
2016-09-25T03:58:27.305Z,1004.86
2016-09-25T03:59:37.593Z,1004.86
2016-09-25T04:00:47.582Z,1004.82
2016-09-25T04:01:57.874Z,1004.8
2016-09-25T04:03:07.856Z,1004.83
2016-09-25T04:04:17.838Z,1004.89
2016-09-25T04:05:28.145Z,1004.9
2016-09-25T04:06:38.421Z,1004.91
2016-09-25T04:07:48.711Z,1004.91
2016-09-25T04:08:58.994Z,1004.92
2016-09-25T04:10:09.306Z,1004.91
2016-09-25T04:11:19.279Z,1004.9
2016-09-25T04:12:29.253Z,1004.93
2016-09-25T04:13:39.251Z,1004.9
2016-09-25T04:14:49.235Z,1004.92
2016-09-25T04:15:58.894Z,1004.92
2016-09-25T04:17:09.184Z,1004.95
2016-09-25T04:18:19.476Z,1004.89
2016-09-25T04:19:29.763Z,1004.88
2016-09-25T04:20:39.425Z,1004.87
2016-09-25T04:21:49.732Z,1004.88
2016-09-25T04:23:00.024Z,1004.92
2016-09-25T04:24:10.012Z,1004.92
2016-09-25T04:25:20.002Z,1004.95
2016-09-25T04:26:30.003Z,1004.92
2016-09-25T04:27:40.295Z,1004.91
2016-09-25T04:28:50.591Z,1004.95
2016-09-25T04:30:00.883Z,1004.93
2016-09-25T04:31:11.166Z,1004.96
2016-09-25T04:32:21.152Z,1004.95
2016-09-25T04:33:31.464Z,1005
2016-09-25T04:34:41.442Z,1004.97
2016-09-25T04:35:51.418Z,1004.97
2016-09-25T04:37:01.099Z,1004.95
2016-09-25T04:38:11.411Z,1004.94
2016-09-25T04:39:21.693Z,1004.96
2016-09-25T04:40:31.982Z,1004.99
2016-09-25T04:41:42.274Z,1004.99
2016-09-25T04:42:52.563Z,1005.02
2016-09-25T04:44:02.546Z,1005.04
2016-09-25T04:45:12.540Z,1005.08
2016-09-25T04:46:22.819Z,1005.04
2016-09-25T04:47:33.102Z,1005.02
2016-09-25T04:48:43.390Z,1004.98
2016-09-25T04:49:53.668Z,1005.02
2016-09-25T04:51:03.646Z,1005.03
2016-09-25T04:52:13.617Z,1005.01
2016-09-25T04:53:23.898Z,1004.98
2016-09-25T04:54:33.877Z,1004.98
2016-09-25T04:55:44.163Z,1004.98
2016-09-25T04:56:54.461Z,1005
2016-09-25T04:58:04.740Z,1005.01
2016-09-25T04:59:14.453Z,1005.09
2016-09-25T05:00:24.118Z,1005.1
2016-09-25T05:01:33.790Z,1005.09
2016-09-25T05:02:43.765Z,1005.12
2016-09-25T05:03:54.285Z,1005.11
2016-09-25T05:05:04.576Z,1005.15
2016-09-25T05:06:14.877Z,1005.15
2016-09-25T05:07:25.161Z,1005.15
2016-09-25T05:08:35.440Z,1005.15
2016-09-25T05:09:45.738Z,1005.2
2016-09-25T05:10:55.732Z,1005.19
2016-09-25T05:12:05.737Z,1005.22
2016-09-25T05:13:15.735Z,1005.21
2016-09-25T05:14:25.100Z,1005.24
2016-09-25T05:15:34.761Z,1005.23
2016-09-25T05:16:44.428Z,1005.24
2016-09-25T05:17:54.724Z,1005.23
2016-09-25T05:19:05.012Z,1005.22
2016-09-25T05:20:14.991Z,1005.21
2016-09-25T05:21:24.974Z,1005.14
2016-09-25T05:22:34.942Z,1005.15
2016-09-25T05:23:44.914Z,1005.15
2016-09-25T05:24:54.892Z,1005.12
2016-09-25T05:26:04.860Z,1005.11
2016-09-25T05:27:14.827Z,1005.09
2016-09-25T05:28:24.808Z,1005.07
2016-09-25T05:29:35.103Z,1005.08
2016-09-25T05:30:45.404Z,1005.04
2016-09-25T05:31:55.686Z,1005.03
2016-09-25T05:33:05.983Z,1005.1
2016-09-25T05:34:16.293Z,1005.07
2016-09-25T05:35:26.596Z,1005.06
2016-09-25T05:36:36.577Z,1005.04
2016-09-25T05:37:46.854Z,1005.02
2016-09-25T05:38:57.137Z,1005.03
2016-09-25T05:40:07.419Z,1005.03
2016-09-25T05:41:17.087Z,1004.99
2016-09-25T05:42:27.069Z,1004.95
2016-09-25T05:43:37.052Z,1004.94
2016-09-25T05:44:47.367Z,1004.94
2016-09-25T05:45:57.667Z,1004.99
2016-09-25T05:47:07.968Z,1004.97
2016-09-25T05:48:18.260Z,1004.98
2016-09-25T05:49:28.225Z,1004.9
2016-09-25T05:50:38.531Z,1004.98
2016-09-25T05:51:48.513Z,1004.97
2016-09-25T05:52:58.505Z,1004.95
2016-09-25T05:54:08.779Z,1004.99
2016-09-25T05:55:18.746Z,1004.96
2016-09-25T05:56:28.124Z,1004.95
2016-09-25T05:57:38.117Z,1004.96
2016-09-25T05:58:48.400Z,1004.96
2016-09-25T05:59:58.685Z,1005
2016-09-25T06:01:08.974Z,1004.95
2016-09-25T06:02:19.268Z,1004.93
2016-09-25T06:03:29.261Z,1004.94
2016-09-25T06:04:39.253Z,1004.93
2016-09-25T06:05:49.553Z,1004.92
2016-09-25T06:06:59.847Z,1004.98
2016-09-25T06:08:09.838Z,1004.96
2016-09-25T06:09:19.835Z,1004.93
2016-09-25T06:10:29.520Z,1004.91
2016-09-25T06:11:39.516Z,1004.94
2016-09-25T06:12:49.808Z,1004.96
2016-09-25T06:14:00.098Z,1004.96
2016-09-25T06:15:10.390Z,1004.96
2016-09-25T06:16:20.685Z,1004.97
2016-09-25T06:17:30.677Z,1005.01
2016-09-25T06:18:40.961Z,1005.07
2016-09-25T06:19:51.231Z,1005.06
2016-09-25T06:21:01.531Z,1005.07
2016-09-25T06:22:11.505Z,1005.07
2016-09-25T06:23:21.492Z,1005.08
2016-09-25T06:24:31.757Z,1005.05
2016-09-25T06:25:41.754Z,1005.02
2016-09-25T06:26:51.741Z,1005.04
2016-09-25T06:28:02.027Z,1005.04
2016-09-25T06:29:12.329Z,1005.01
2016-09-25T06:30:22.320Z,1005.03
2016-09-25T06:31:32.612Z,1005.02
2016-09-25T06:32:42.909Z,1004.99
2016-09-25T06:33:52.909Z,1004.99
2016-09-25T06:35:02.580Z,1005.04
2016-09-25T06:36:12.879Z,1005.06
2016-09-25T06:37:23.169Z,1005
2016-09-25T06:38:33.486Z,1004.99
2016-09-25T06:39:43.787Z,1004.97
2016-09-25T06:40:54.078Z,1004.99
2016-09-25T06:42:04.373Z,1004.92
2016-09-25T06:43:14.654Z,1004.95
2016-09-25T06:44:24.947Z,1004.96
2016-09-25T06:45:34.939Z,1004.93
2016-09-25T06:46:44.940Z,1004.95
2016-09-25T06:47:55.236Z,1004.95
2016-09-25T06:49:05.526Z,1004.98
2016-09-25T06:50:15.813Z,1004.95
2016-09-25T06:51:26.096Z,1004.98
2016-09-25T06:52:36.384Z,1004.96
2016-09-25T06:53:46.680Z,1004.99
2016-09-25T06:54:56.958Z,1004.97
2016-09-25T06:56:07.254Z,1005.04
2016-09-25T06:57:17.254Z,1004.99
2016-09-25T06:58:27.533Z,1005
2016-09-25T06:59:37.822Z,1004.99
2016-09-25T07:00:47.797Z,1005.02
2016-09-25T07:01:57.788Z,1004.98
2016-09-25T07:03:08.088Z,1005
2016-09-25T07:04:18.075Z,1005.02
2016-09-25T07:05:27.748Z,1005.03
2016-09-25T07:06:38.021Z,1004.99
2016-09-25T07:07:48.340Z,1005.01
2016-09-25T07:08:58.317Z,1004.98
2016-09-25T07:10:08.620Z,1004.99
2016-09-25T07:11:18.599Z,1004.95
2016-09-25T07:12:28.885Z,1004.97
2016-09-25T07:13:38.887Z,1004.97
2016-09-25T07:14:49.181Z,1004.94
2016-09-25T07:15:59.472Z,1004.96
2016-09-25T07:17:09.448Z,1004.98
2016-09-25T07:18:19.732Z,1004.96
2016-09-25T07:19:30.028Z,1004.97
2016-09-25T07:20:40.007Z,1004.94
2016-09-25T07:21:50.298Z,1004.94
2016-09-25T07:23:00.288Z,1004.96
2016-09-25T07:24:10.585Z,1004.95
2016-09-25T07:25:20.258Z,1004.94
2016-09-25T07:26:30.234Z,1004.91
2016-09-25T07:27:40.536Z,1004.93
2016-09-25T07:28:50.515Z,1004.92
2016-09-25T07:30:00.799Z,1004.97
2016-09-25T07:31:10.490Z,1004.96
2016-09-25T07:32:20.507Z,1004.96
2016-09-25T07:33:30.801Z,1004.96
2016-09-25T07:34:41.095Z,1004.97
2016-09-25T07:35:51.377Z,1004.94
2016-09-25T07:37:01.678Z,1004.96
2016-09-25T07:38:11.961Z,1005.01
2016-09-25T07:39:22.265Z,1005
2016-09-25T07:40:32.243Z,1005.02
2016-09-25T07:41:42.526Z,1005.01
2016-09-25T07:42:52.803Z,1005
2016-09-25T07:44:02.779Z,1005
2016-09-25T07:45:13.086Z,1005
2016-09-25T07:46:23.074Z,1005.02
2016-09-25T07:47:33.360Z,1005.01
2016-09-25T07:48:43.650Z,1005.01
2016-09-25T07:49:53.933Z,1004.99
2016-09-25T07:51:04.208Z,1004.99
2016-09-25T07:52:14.510Z,1004.94
2016-09-25T07:53:24.488Z,1004.93
2016-09-25T07:54:34.771Z,1004.93
2016-09-25T07:55:45.057Z,1004.94
2016-09-25T07:56:54.737Z,1004.92
2016-09-25T07:58:05.030Z,1004.96
2016-09-25T07:59:15.307Z,1004.94
2016-09-25T08:00:25.634Z,1004.93
2016-09-25T08:01:35.635Z,1004.96
2016-09-25T08:02:45.945Z,1004.92
2016-09-25T08:03:56.235Z,1004.95
2016-09-25T08:05:06.220Z,1004.95
2016-09-25T08:06:16.526Z,1004.94
2016-09-25T08:07:26.526Z,1004.93
2016-09-25T08:08:36.208Z,1004.92
2016-09-25T08:09:46.207Z,1004.9
2016-09-25T08:10:56.511Z,1004.89
2016-09-25T08:12:06.814Z,1004.86
2016-09-25T08:13:17.121Z,1004.84
2016-09-25T08:14:27.123Z,1004.87
2016-09-25T08:15:37.120Z,1004.81
2016-09-25T08:16:47.432Z,1004.86
2016-09-25T08:17:57.420Z,1004.85
2016-09-25T08:19:07.724Z,1004.8
2016-09-25T08:20:17.725Z,1004.82
2016-09-25T08:21:28.018Z,1004.79
2016-09-25T08:22:38.334Z,1004.81
2016-09-25T08:23:48.627Z,1004.78
2016-09-25T08:24:58.623Z,1004.79
2016-09-25T08:26:08.944Z,1004.78
2016-09-25T08:27:18.932Z,1004.78
2016-09-25T08:28:29.221Z,1004.77
2016-09-25T08:29:39.220Z,1004.74
2016-09-25T08:30:49.522Z,1004.72
2016-09-25T08:31:59.524Z,1004.69
2016-09-25T08:33:09.825Z,1004.68
2016-09-25T08:34:20.149Z,1004.69
2016-09-25T08:35:30.149Z,1004.65
2016-09-25T08:36:40.469Z,1004.66
2016-09-25T08:37:50.799Z,1004.62
2016-09-25T08:39:01.113Z,1004.62
2016-09-25T08:40:11.092Z,1004.62
2016-09-25T08:41:21.109Z,1004.61
2016-09-25T08:42:31.660Z,1004.59
2016-09-25T08:43:42.004Z,1004.6
2016-09-25T08:44:52.372Z,1004.6
2016-09-25T08:46:02.701Z,1004.58
2016-09-25T08:47:12.997Z,1004.58
2016-09-25T08:48:23.317Z,1004.57
2016-09-25T08:49:33.617Z,1004.55
2016-09-25T08:50:43.617Z,1004.52
2016-09-25T08:51:53.940Z,1004.52
2016-09-25T08:53:04.242Z,1004.49
2016-09-25T08:54:14.677Z,1004.49
2016-09-25T08:55:24.700Z,1004.42
2016-09-25T08:56:35.024Z,1004.47
2016-09-25T08:57:45.336Z,1004.47
2016-09-25T08:58:55.645Z,1004.5
2016-09-25T09:00:05.968Z,1004.47
2016-09-25T09:01:16.342Z,1004.47
2016-09-25T09:02:26.670Z,1004.46
2016-09-25T09:03:36.990Z,1004.46
2016-09-25T09:04:46.999Z,1004.43
2016-09-25T09:05:57.314Z,1004.43
2016-09-25T09:07:07.653Z,1004.44
2016-09-25T09:08:17.642Z,1004.42
2016-09-25T09:09:27.656Z,1004.45
2016-09-25T09:10:37.960Z,1004.43
2016-09-25T09:11:48.297Z,1004.44
2016-09-25T09:12:58.630Z,1004.47
2016-09-25T09:14:08.947Z,1004.45
2016-09-25T09:15:19.257Z,1004.4
2016-09-25T09:16:29.544Z,1004.42
2016-09-25T09:17:38.925Z,1004.4
2016-09-25T09:18:49.224Z,1004.38
2016-09-25T09:19:59.526Z,1004.42
2016-09-25T09:21:09.212Z,1004.38
2016-09-25T09:22:19.218Z,1004.37
2016-09-25T09:23:29.209Z,1004.36
2016-09-25T09:24:39.509Z,1004.36
2016-09-25T09:25:50.053Z,1004.4
2016-09-25T09:27:00.365Z,1004.35
2016-09-25T09:28:10.356Z,1004.36
2016-09-25T09:29:20.359Z,1004.3
2016-09-25T09:30:30.675Z,1004.33
2016-09-25T09:31:40.989Z,1004.27
2016-09-25T09:32:51.279Z,1004.29
2016-09-25T09:34:01.596Z,1004.29
2016-09-25T09:35:11.905Z,1004.27
2016-09-25T09:36:22.212Z,1004.29
2016-09-25T09:37:32.527Z,1004.28
2016-09-25T09:38:42.836Z,1004.3
2016-09-25T09:39:53.136Z,1004.3
2016-09-25T09:41:03.162Z,1004.29
2016-09-25T09:42:13.471Z,1004.24
2016-09-25T09:43:23.173Z,1004.24
2016-09-25T09:44:33.487Z,1004.24
2016-09-25T09:45:43.497Z,1004.17
2016-09-25T09:46:53.800Z,1004.19
2016-09-25T09:48:04.107Z,1004.16
2016-09-25T09:49:14.422Z,1004.14
2016-09-25T09:50:24.415Z,1004.15
2016-09-25T09:51:34.420Z,1004.18
2016-09-25T09:52:44.751Z,1004.16
2016-09-25T09:53:55.074Z,1004.14
2016-09-25T09:55:05.382Z,1004.18
2016-09-25T09:56:15.676Z,1004.17
2016-09-25T09:57:25.682Z,1004.18
2016-09-25T09:58:35.687Z,1004.16
2016-09-25T09:59:45.986Z,1004.12
2016-09-25T10:00:55.983Z,1004.07
2016-09-25T10:02:06.282Z,1004.07
2016-09-25T10:03:16.297Z,1004.07
2016-09-25T10:04:26.603Z,1004.04
2016-09-25T10:05:36.905Z,1004.04
2016-09-25T10:06:47.213Z,1004
2016-09-25T10:07:57.512Z,1004.03
2016-09-25T10:09:07.929Z,1003.97
2016-09-25T10:10:18.240Z,1003.97
2016-09-25T10:11:28.556Z,1003.96
2016-09-25T10:12:38.575Z,1003.95
2016-09-25T10:13:48.887Z,1003.92
2016-09-25T10:14:59.202Z,1003.9
2016-09-25T10:16:09.507Z,1003.89
2016-09-25T10:17:19.503Z,1003.86
2016-09-25T10:18:29.815Z,1003.88
2016-09-25T10:19:39.815Z,1003.87
2016-09-25T10:20:50.170Z,1003.88
2016-09-25T10:22:00.166Z,1003.89
2016-09-25T10:23:10.189Z,1003.9
2016-09-25T10:24:20.205Z,1003.91
2016-09-25T10:25:30.210Z,1003.95
2016-09-25T10:26:40.517Z,1003.94
2016-09-25T10:27:50.517Z,1003.9
2016-09-25T10:29:00.519Z,1003.89
2016-09-25T10:30:10.508Z,1003.88
2016-09-25T10:31:20.823Z,1003.85
2016-09-25T10:32:31.167Z,1003.83
2016-09-25T10:33:41.485Z,1003.8
2016-09-25T10:34:51.781Z,1003.85
2016-09-25T10:36:02.094Z,1003.83
2016-09-25T10:37:12.609Z,1003.82
2016-09-25T10:38:22.597Z,1003.76
2016-09-25T10:39:32.895Z,1003.77
2016-09-25T10:40:43.187Z,1003.79
2016-09-25T10:41:53.477Z,1003.77
2016-09-25T10:43:03.640Z,1003.75
2016-09-25T10:44:13.926Z,1003.72
2016-09-25T10:45:23.930Z,1003.7
2016-09-25T10:46:34.274Z,1003.74
2016-09-25T10:47:44.567Z,1003.72
2016-09-25T10:48:54.568Z,1003.66
2016-09-25T10:50:04.879Z,1003.64
2016-09-25T10:51:15.177Z,1003.65
2016-09-25T10:52:25.473Z,1003.62
2016-09-25T10:53:35.786Z,1003.63
2016-09-25T10:54:45.773Z,1003.57
2016-09-25T10:55:56.056Z,1003.58
2016-09-25T10:57:06.051Z,1003.57
2016-09-25T10:58:15.716Z,1003.58
2016-09-25T10:59:25.698Z,1003.58
2016-09-25T11:00:36.028Z,1003.58
2016-09-25T11:01:46.003Z,1003.56
2016-09-25T11:02:55.982Z,1003.52
2016-09-25T11:04:06.276Z,1003.51
2016-09-25T11:05:16.587Z,1003.49
2016-09-25T11:06:26.911Z,1003.49
2016-09-25T11:07:37.208Z,1003.45
2016-09-25T11:08:47.493Z,1003.43
2016-09-25T11:09:57.789Z,1003.42
2016-09-25T11:11:08.095Z,1003.43
2016-09-25T11:12:18.085Z,1003.44
2016-09-25T11:13:28.405Z,1003.38
2016-09-25T11:14:38.396Z,1003.36
2016-09-25T11:15:48.698Z,1003.37
2016-09-25T11:16:59.010Z,1003.28
2016-09-25T11:18:08.710Z,1003.29
2016-09-25T11:19:18.698Z,1003.26
2016-09-25T11:20:29.007Z,1003.24
2016-09-25T11:21:39.302Z,1003.21
2016-09-25T11:22:49.611Z,1003.21
2016-09-25T11:23:59.589Z,1003.16
2016-09-25T11:25:09.910Z,1003.17
2016-09-25T11:26:20.209Z,1003.13
2016-09-25T11:27:30.495Z,1003.18
2016-09-25T11:28:40.493Z,1003.11
2016-09-25T11:29:50.804Z,1003.1
2016-09-25T11:31:01.344Z,1003.13
2016-09-25T11:32:11.643Z,1003.09
2016-09-25T11:33:21.935Z,1003.08
2016-09-25T11:34:31.627Z,1003.01
2016-09-25T11:35:41.937Z,1002.99
2016-09-25T11:36:51.918Z,1003.02
2016-09-25T11:38:01.913Z,1002.93
2016-09-25T11:39:12.206Z,1002.95
2016-09-25T11:40:22.499Z,1002.93
2016-09-25T11:41:32.495Z,1002.93
2016-09-25T11:42:42.805Z,1002.92
2016-09-25T11:43:53.119Z,1002.92
2016-09-25T11:45:03.434Z,1002.93
2016-09-25T11:46:13.723Z,1002.9
2016-09-25T11:47:24.026Z,1002.86
2016-09-25T11:48:34.321Z,1002.85
2016-09-25T11:49:44.631Z,1002.86
2016-09-25T11:50:54.627Z,1002.86
2016-09-25T11:52:04.936Z,1002.9
2016-09-25T11:53:15.234Z,1002.9
2016-09-25T11:54:25.530Z,1002.91
2016-09-25T11:55:35.840Z,1002.87
2016-09-25T11:56:46.137Z,1002.81
2016-09-25T11:57:56.124Z,1002.84
2016-09-25T11:59:06.115Z,1002.84
2016-09-25T12:00:16.403Z,1002.83
2016-09-25T12:01:26.713Z,1002.81
2016-09-25T12:02:37.001Z,1002.77
2016-09-25T12:03:47.317Z,1002.76
2016-09-25T12:04:57.298Z,1002.7
2016-09-25T12:06:07.283Z,1002.71
2016-09-25T12:07:17.277Z,1002.72
2016-09-25T12:08:27.259Z,1002.74
2016-09-25T12:09:37.565Z,1002.75
2016-09-25T12:10:47.868Z,1002.64
2016-09-25T12:11:58.177Z,1002.65
2016-09-25T12:13:08.169Z,1002.61
2016-09-25T12:14:18.153Z,1002.61
2016-09-25T12:15:28.469Z,1002.57
2016-09-25T12:16:38.468Z,1002.59
2016-09-25T12:17:48.761Z,1002.62
2016-09-25T12:18:58.770Z,1002.62
2016-09-25T12:20:09.102Z,1002.63
2016-09-25T12:21:19.112Z,1002.61
2016-09-25T12:22:28.789Z,1002.61
2016-09-25T12:23:39.086Z,1002.55
2016-09-25T12:24:48.771Z,1002.54
2016-09-25T12:25:59.081Z,1002.52
2016-09-25T12:27:09.073Z,1002.45
2016-09-25T12:28:19.066Z,1002.38
2016-09-25T12:29:29.055Z,1002.38
2016-09-25T12:30:39.357Z,1002.37
2016-09-25T12:31:49.350Z,1002.34
2016-09-25T12:32:59.651Z,1002.34
2016-09-25T12:34:09.645Z,1002.38
2016-09-25T12:35:19.627Z,1002.34
2016-09-25T12:36:29.938Z,1002.35
2016-09-25T12:37:40.236Z,1002.3
2016-09-25T12:38:50.223Z,1002.27
2016-09-25T12:40:00.525Z,1002.24
2016-09-25T12:41:10.826Z,1002.29
2016-09-25T12:42:21.132Z,1002.23
2016-09-25T12:43:31.136Z,1002.24
2016-09-25T12:44:41.430Z,1002.2
2016-09-25T12:45:51.725Z,1002.21
2016-09-25T12:47:01.733Z,1002.2
2016-09-25T12:48:11.426Z,1002.23
2016-09-25T12:49:21.708Z,1002.21
2016-09-25T12:50:31.716Z,1002.16
2016-09-25T12:51:41.723Z,1002.18
2016-09-25T12:52:52.029Z,1002.21
2016-09-25T12:54:02.348Z,1002.19
2016-09-25T12:55:12.672Z,1002.22
2016-09-25T12:56:22.695Z,1002.18
2016-09-25T12:57:33.029Z,1002.2
2016-09-25T12:58:43.337Z,1002.22
2016-09-25T12:59:53.329Z,1002.19
2016-09-25T13:01:03.622Z,1002.2
2016-09-25T13:02:13.612Z,1002.17
2016-09-25T13:03:23.897Z,1002.14
2016-09-25T13:04:34.200Z,1002.15
2016-09-25T13:05:44.196Z,1002.1
2016-09-25T13:06:54.512Z,1002.1
2016-09-25T13:08:04.829Z,1002.07
2016-09-25T13:09:14.805Z,1002.08
2016-09-25T13:10:25.124Z,1002.08
2016-09-25T13:11:35.438Z,1002.01
2016-09-25T13:12:45.135Z,1002.06
2016-09-25T13:13:55.421Z,1002.07
2016-09-25T13:15:05.418Z,1002.03
2016-09-25T13:16:15.750Z,1002.04
2016-09-25T13:17:26.048Z,1002.08
2016-09-25T13:18:36.352Z,1002.08
2016-09-25T13:19:46.341Z,1002.08
2016-09-25T13:20:56.320Z,1002.11
2016-09-25T13:22:06.650Z,1002.05
2016-09-25T13:23:16.974Z,1002.01
2016-09-25T13:24:26.962Z,1001.99
2016-09-25T13:25:37.253Z,1002
2016-09-25T13:26:47.252Z,1001.95
2016-09-25T13:27:56.943Z,1001.98
2016-09-25T13:29:06.924Z,1001.99
2016-09-25T13:30:17.219Z,1001.95
2016-09-25T13:31:26.931Z,1001.94
2016-09-25T13:32:37.233Z,1001.91
2016-09-25T13:33:47.561Z,1001.95
2016-09-25T13:34:57.858Z,1001.98
2016-09-25T13:36:08.161Z,1001.96
2016-09-25T13:37:18.459Z,1001.96
2016-09-25T13:38:28.773Z,1001.99
2016-09-25T13:39:38.760Z,1002
2016-09-25T13:40:48.775Z,1001.96
2016-09-25T13:41:59.076Z,1001.97
2016-09-25T13:43:09.398Z,1001.95
2016-09-25T13:44:19.701Z,1001.92
2016-09-25T13:45:30.008Z,1001.9
2016-09-25T13:46:40.000Z,1001.92
2016-09-25T13:47:50.294Z,1001.84
2016-09-25T13:49:00.603Z,1001.85
2016-09-25T13:50:10.588Z,1001.78
2016-09-25T13:51:20.886Z,1001.81
2016-09-25T13:52:31.186Z,1001.82
2016-09-25T13:53:41.478Z,1001.81
2016-09-25T13:54:51.472Z,1001.83
2016-09-25T13:56:01.466Z,1001.82
2016-09-25T13:57:11.772Z,1001.81
2016-09-25T13:58:22.084Z,1001.79
2016-09-25T13:59:32.073Z,1001.8
2016-09-25T14:00:42.061Z,1001.77
2016-09-25T14:01:52.054Z,1001.75
2016-09-25T14:03:02.356Z,1001.77
2016-09-25T14:04:12.356Z,1001.71
2016-09-25T14:05:22.757Z,1001.73
2016-09-25T14:06:33.080Z,1001.71
2016-09-25T14:07:43.398Z,1001.71
2016-09-25T14:08:53.701Z,1001.7
2016-09-25T14:10:04.011Z,1001.71
2016-09-25T14:11:14.007Z,1001.62
2016-09-25T14:12:24.004Z,1001.66
2016-09-25T14:13:34.302Z,1001.66
2016-09-25T14:14:44.598Z,1001.64
2016-09-25T14:15:54.913Z,1001.59
2016-09-25T14:17:05.248Z,1001.61
2016-09-25T14:18:15.549Z,1001.57
2016-09-25T14:19:25.560Z,1001.58
2016-09-25T14:20:35.876Z,1001.54
2016-09-25T14:21:46.175Z,1001.55
2016-09-25T14:22:56.478Z,1001.54
2016-09-25T14:24:06.783Z,1001.49
2016-09-25T14:25:17.085Z,1001.48
2016-09-25T14:26:26.765Z,1001.52
2016-09-25T14:27:37.067Z,1001.52
2016-09-25T14:28:47.059Z,1001.54
2016-09-25T14:29:57.357Z,1001.52
2016-09-25T14:31:07.334Z,1001.5
2016-09-25T14:32:17.344Z,1001.46
2016-09-25T14:33:27.655Z,1001.46
2016-09-25T14:34:37.943Z,1001.44
2016-09-25T14:35:48.233Z,1001.47
2016-09-25T14:36:58.554Z,1001.46
2016-09-25T14:38:08.848Z,1001.45
2016-09-25T14:39:18.533Z,1001.38
2016-09-25T14:40:28.839Z,1001.37
2016-09-25T14:41:39.193Z,1001.39
2016-09-25T14:42:48.571Z,1001.32
2016-09-25T14:43:58.558Z,1001.33